Monday, July 23, 2018, 7:24 AM EDT
Back to Local

KMGJ, Montgomery Orange Co Airport

Location: Montgomery, NY, United States Lat: 41.517
Local Time: 7:24 AM EDT (11:24 GMT) Lon: -74.267
Time Zone: US/Eastern Elev: 354 ft

Show me the last for .
Show Decoded

2018-07-23 06:54 METAR KMGJ 231054Z AUTO 08003KT 10SM FEW020 FEW029 SCT042 24/23 A3006 RMK AO2
                 RAE29 SLP175 P0004 T02390228 $ =
2018-07-23 06:38 METAR KMGJ 231038Z AUTO 10003KT 10SM SCT025 BKN042 23/23 A3005 RMK AO2 RAE29
                 P0004 T02330228 $ =
2018-07-23 06:09 METAR KMGJ 231009Z AUTO 00000KT 10SM -RA FEW006 BKN019 OVC029 23/23 A3005 RMK
                 AO2 P0004 T02330228 $ =
2018-07-23 06:01 METAR KMGJ 231001Z AUTO 22004KT 2SM +RA BR SCT009 BKN017 OVC029 23/23 A3005 RMK
                 AO2 P0004 T02330228 $ =
2018-07-23 05:54 METAR KMGJ 230954Z AUTO 27004KT 1 1/2SM +RA BR FEW011 BKN017 OVC075 23/23 A3005
                 RMK AO2 RAE09B39 SLP173 P0022 T02280228 $ =
2018-07-23 05:50 METAR KMGJ 230950Z AUTO 25004KT 2 1/2SM +RA BR SCT016 BKN023 OVC110 23/23 A3005
                 RMK AO2 RAE09B39 P0012 $ =
2018-07-23 05:16 METAR KMGJ 230916Z AUTO 13003KT 10SM FEW024 SCT033 SCT055 23/22 A3003 RMK AO2
                 RAE09 P0000 T02330222 $ =
2018-07-23 04:54 METAR KMGJ 230854Z AUTO 16006KT 7SM -RA BKN023 OVC034 23/23 A3003 RMK AO2 SLP167
                 P0036 60037 T02330228 53001 $ =
2018-07-23 04:52 METAR KMGJ 230852Z AUTO 16006G19KT 5SM -RA BR SCT017 BKN030 OVC055 23/23 A3003
                 RMK AO2 P0036 $ =
2018-07-23 04:41 METAR KMGJ 230841Z AUTO 18009G16KT 2SM +RA BR SCT015 BKN028 OVC080 24/23 A3003
                 RMK AO2 VIS 1V5 P0029 T02390228 $ =
2018-07-23 04:28 METAR KMGJ 230828Z AUTO 14005KT 10SM -RA FEW017 BKN060 OVC090 23/23 A3003 RMK
                 AO2 P0000 T02330228 $ =
2018-07-23 03:54 METAR KMGJ 230754Z AUTO 14004KT 9SM -RA SCT018 BKN022 OVC050 23/23 A3002 RMK AO2
                 RAB02E11B51 SLP162 P0001 T02330228 $ =
2018-07-23 03:29 METAR KMGJ 230729Z AUTO 14003KT 10SM FEW020 BKN038 OVC045 23/23 A3002 RMK AO2
                 RAB02E11 P0000 T02330228 $ =
2018-07-23 02:54 METAR KMGJ 230654Z AUTO 01004KT 10SM BKN022 OVC029 23/22 A3002 RMK AO2 SLP163
                 T02280222 $ =
2018-07-23 01:54 METAR KMGJ 230554Z AUTO 08004KT 10SM FEW015 BKN023 OVC028 23/22 A3003 RMK AO2
                 RAB0456E06B29E38 SLP165 P0000 60001 T02330222 57002 $ =
2018-07-23 01:52 METAR KMGJ 230552Z AUTO 09004KT 10SM FEW011 SCT017 OVC026 23/22 A3003 RMK AO2
                 RAB0456E06B29E38 P0000 $ =
2018-07-23 00:54 METAR KMGJ 230454Z AUTO 03004KT 10SM OVC014 23/22 A3004 RMK AO2 RAB26E51 SLP169
                 P0001 T02330222 402890172 $ =
2018-07-22 23:54 METAR KMGJ 230354Z AUTO 02003KT 10SM OVC012 23/22 A3004 RMK AO2 SLP168 T02330222
                 $ =
2018-07-22 23:29 METAR KMGJ 230329Z AUTO 03003KT 10SM OVC011 23/22 A3003 RMK AO2 T02280222 $ =
2018-07-22 22:54 METAR KMGJ 230254Z AUTO A3003 RMK AO2 SLPNO 51010 PWINO $ =
2018-07-22 21:54 METAR KMGJ 230154Z AUTO A3003 RMK AO2 SLPNO PWINO $ =
2018-07-22 20:54 METAR KMGJ 230054Z AUTO A3001 RMK AO2 SLPNO PWINO $ =
2018-07-22 19:54 METAR KMGJ 222354Z AUTO A3000 RMK AO2 SLPNO 60000 53014 PWINO $ =
2018-07-22 18:54 METAR KMGJ 222254Z AUTO 26/22 A2998 RMK AO2 SLP149 T02610217 PWINO $ =
2018-07-22 18:50 METAR KMGJ 222250Z AUTO 26/22 A2998 RMK AO2 PWINO $ =
2018-07-22 18:28 METAR KMGJ 222228Z AUTO 11007KT 10SM SCT005 BKN025 BKN033 27/22 A2996 RMK AO2
                 T02670217 $ =
2018-07-22 17:54 METAR KMGJ 222154Z AUTO 13008G19KT 10SM FEW005 SCT110 27/22 A2996 RMK AO2
                 RAB07E15 SLP144 P0000 T02720222 $ =
2018-07-22 17:40 METAR KMGJ 222140Z AUTO 13011KT 10SM SCT005 BKN100 27/22 A2997 RMK AO2 RAB07E15
                 P0000 T02720222 $ =
2018-07-22 17:31 METAR KMGJ 222131Z AUTO 12014KT 10SM SCT010 BKN033 27/22 A2996 RMK AO2 RAB07E15
                 P0000 T02720222 $ =
2018-07-22 17:00 METAR KMGJ 222100Z AUTO 13014G21KT 10SM FEW006 BKN027 BKN110 28/22 A2996 RMK AO2
                 T02780217 $ =
2018-07-22 16:54 METAR KMGJ 222054Z AUTO 13011KT 10SM BKN030 28/22 A2996 RMK AO2 SLP143 T02830217
                 53000 $ =
2018-07-22 16:51 METAR KMGJ 222051Z AUTO 16011G20KT 10SM BKN028 BKN033 27/22 A2996 RMK AO2 $ =
2018-07-22 16:06 METAR KMGJ 222006Z AUTO 12012G16KT 10SM FEW008 BKN030 BKN039 28/22 A2995 RMK AO2
                 T02830217 $ =
2018-07-22 15:54 METAR KMGJ 221954Z AUTO 15010KT 10SM FEW015 SCT030 BKN034 27/21 A2995 RMK AO2
                 SLP138 T02720211 $ =
2018-07-22 14:54 METAR KMGJ 221854Z AUTO 15007KT 10SM SCT027 BKN036 BKN055 27/21 A2996 RMK AO2
                 SLP142 T02670211 $ =
2018-07-22 13:54 METAR KMGJ 221754Z AUTO 17009KT 28/21 A2995 RMK AO2 SLP141 60001 T02780211 10278
                 20228 $ =
2018-07-22 13:42 METAR KMGJ 221742Z AUTO 16010G17KT 10SM BKN026 BKN032 27/21 A2996 RMK AO2
                 T02720206 $ =
2018-07-22 13:21 METAR KMGJ 221721Z AUTO 14009KT 10SM SCT024 BKN036 BKN044 27/22 A2996 RMK AO2
                 T02720217 $ =
2018-07-22 12:54 METAR KMGJ 221654Z AUTO 19014G18KT 10SM FEW016 BKN029 OVC035 26/21 A2996 RMK AO2
                 SLP142 T02560211 $ =
2018-07-22 11:54 METAR KMGJ 221554Z AUTO 18012G18KT 10SM OVC016 24/21 A2993 RMK AO2 SLP132
                 T02390206 $ =
2018-07-22 10:54 METAR KMGJ 221454Z AUTO 17013G20KT 10SM BKN016 OVC047 24/21 A2990 RMK AO2 SLP124
                 60001 T02440211 53021 $ =
2018-07-22 10:25 METAR KMGJ 221425Z AUTO 15011KT 10SM BKN016 OVC034 24/21 A2989 RMK AO2 T02390211
                 $ =
2018-07-22 10:15 METAR KMGJ 221415Z AUTO 16011G21KT 10SM SCT014 OVC034 23/21 A2988 RMK AO2
                 T02330211 $ =
2018-07-22 10:07 METAR KMGJ 221407Z AUTO 15010G20KT 10SM BKN014 BKN024 OVC036 23/21 A2988 RMK AO2
                 T02330211 $ =
2018-07-22 09:54 METAR KMGJ 221354Z AUTO 16007KT 10SM OVC015 23/21 A2988 RMK AO2 SLP114 T02330211
                 $ =
2018-07-22 08:54 METAR KMGJ 221254Z AUTO 16007KT 10SM BKN019 OVC043 23/22 A2986 RMK AO2 RAB08E29
                 SLP109 P0001 T02330217 =
2018-07-22 08:15 METAR KMGJ 221215Z AUTO 15005KT 7SM -RA FEW013 BKN024 OVC047 23/21 A2985 RMK AO2
                 RAB08 P0001 T02280211 =
2018-07-22 07:54 METAR KMGJ 221154Z AUTO 13006KT 10SM FEW023 SCT027 OVC047 23/21 A2984 RMK AO2
                 RAE23 SLP102 P0000 60017 70030 T02330211 10233 20172 53004 =
2018-07-22 07:31 METAR KMGJ 221131Z AUTO 09005KT 10SM FEW020 SCT033 OVC047 21/21 A2983 RMK AO2
                 RAE23 P0000 T02110206 =

Support USWX by starting your Amazon purchase here.